Chalford, United Kingdom
Current Conditions -  °F | °C
As of 4:20 PM on Thursday 18 Dec 2014 (Local Time) from EGBJ Reporting Station
Broken Clouds Broken Clouds  
Wind Chill: 54°   Ceiling: 1800
Heat Index: 54°   Visibility: 6mi
Dew Point: 52°   Wind: 15mph
Humidity: 94%   Direction: 220°SW
Pressure: 29.77"   Gusts: NA
Location:  51.73°N, 2.15°W
Report Text: EGBJ 181620Z 22013KT 9999 FEW011 BKN018 12/11 Q1008
Loading
Personal Weather Stations






























Interactive Weather Map New forecast layout! Learn more

10-Day Weather Forecast

Advertisements
Track Severe Weather on mobile